sensor_id;sensor_type;location;lat;lon;timestamp;pressure;altitude;pressure_sealevel;temperature;humidity
77235;BME280;66253;50.526;14.974;2023-11-18T00:02:11;99514.52;;;3.80;85.21
77235;BME280;66253;50.526;14.974;2023-11-18T00:04:40;99517.23;;;3.80;85.37
77235;BME280;66253;50.526;14.974;2023-11-18T00:07:08;99517.42;;;3.79;85.16
77235;BME280;66253;50.526;14.974;2023-11-18T00:09:37;99517.77;;;3.79;85.21
77235;BME280;66253;50.526;14.974;2023-11-18T00:12:06;99521.61;;;3.80;84.99
77235;BME280;66253;50.526;14.974;2023-11-18T00:14:35;99521.78;;;3.80;85.32
77235;BME280;66253;50.526;14.974;2023-11-18T00:17:03;99523.13;;;3.81;85.06
77235;BME280;66253;50.526;14.974;2023-11-18T00:19:31;99522.79;;;3.81;85.03
77235;BME280;66253;50.526;14.974;2023-11-18T00:22:00;99527.33;;;3.82;85.23
77235;BME280;66253;50.526;14.974;2023-11-18T00:24:28;99529.33;;;3.83;85.30
77235;BME280;66253;50.526;14.974;2023-11-18T00:26:56;99531.67;;;3.84;85.28
77235;BME280;66253;50.526;14.974;2023-11-18T00:29:24;99531.82;;;3.85;85.16
77235;BME280;66253;50.526;14.974;2023-11-18T00:31:52;99531.47;;;3.86;85.13
77235;BME280;66253;50.526;14.974;2023-11-18T00:34:21;99535.34;;;3.86;85.39
77235;BME280;66253;50.526;14.974;2023-11-18T00:36:49;99534.83;;;3.86;85.41
77235;BME280;66253;50.526;14.974;2023-11-18T00:39:17;99545.61;;;3.88;85.32
77235;BME280;66253;50.526;14.974;2023-11-18T00:41:45;99554.73;;;3.88;85.31
77235;BME280;66253;50.526;14.974;2023-11-18T00:44:13;99557.73;;;3.90;85.45
77235;BME280;66253;50.526;14.974;2023-11-18T00:46:42;99562.79;;;3.90;85.58
77235;BME280;66253;50.526;14.974;2023-11-18T00:49:10;99564.13;;;3.91;85.43
77235;BME280;66253;50.526;14.974;2023-11-18T00:51:38;99572.39;;;3.91;85.66
77235;BME280;66253;50.526;14.974;2023-11-18T00:54:07;99574.05;;;3.92;85.52
77235;BME280;66253;50.526;14.974;2023-11-18T00:56:35;99574.20;;;3.93;85.71
77235;BME280;66253;50.526;14.974;2023-11-18T00:59:04;99577.73;;;3.93;85.66
77235;BME280;66253;50.526;14.974;2023-11-18T01:01:32;99578.58;;;3.94;85.56
77235;BME280;66253;50.526;14.974;2023-11-18T01:04:00;99583.83;;;3.94;85.58
77235;BME280;66253;50.526;14.974;2023-11-18T01:06:28;99591.72;;;3.95;85.58
77235;BME280;66253;50.526;14.974;2023-11-18T01:08:57;99597.95;;;3.97;85.34
77235;BME280;66253;50.526;14.974;2023-11-18T01:11:25;99600.47;;;3.97;85.60
77235;BME280;66253;50.526;14.974;2023-11-18T01:13:53;99605.54;;;3.98;85.48
77235;BME280;66253;50.526;14.974;2023-11-18T01:16:21;99607.06;;;3.97;85.27
77235;BME280;66253;50.526;14.974;2023-11-18T01:18:50;99611.81;;;3.97;85.19
77235;BME280;66253;50.526;14.974;2023-11-18T01:21:18;99611.98;;;3.96;85.42
77235;BME280;66253;50.526;14.974;2023-11-18T01:23:46;99613.04;;;3.95;85.30
77235;BME280;66253;50.526;14.974;2023-11-18T01:26:14;99614.91;;;3.95;85.24
77235;BME280;66253;50.526;14.974;2023-11-18T01:28:43;99619.80;;;3.95;85.64
77235;BME280;66253;50.526;14.974;2023-11-18T01:31:11;99621.83;;;3.95;85.43
77235;BME280;66253;50.526;14.974;2023-11-18T01:33:39;99624.55;;;3.94;85.33
77235;BME280;66253;50.526;14.974;2023-11-18T01:36:09;99626.21;;;3.95;85.44
77235;BME280;66253;50.526;14.974;2023-11-18T01:38:38;99628.04;;;3.96;85.77
77235;BME280;66253;50.526;14.974;2023-11-18T01:41:06;99624.31;;;3.97;85.56
77235;BME280;66253;50.526;14.974;2023-11-18T01:43:35;99624.46;;;3.98;85.77
77235;BME280;66253;50.526;14.974;2023-11-18T01:46:05;99620.55;;;3.99;86.08
77235;BME280;66253;50.526;14.974;2023-11-18T01:48:36;99622.86;;;4.01;86.01
77235;BME280;66253;50.526;14.974;2023-11-18T01:51:07;99618.95;;;4.03;86.20
77235;BME280;66253;50.526;14.974;2023-11-18T01:53:38;99621.44;;;4.05;85.86
77235;BME280;66253;50.526;14.974;2023-11-18T01:56:08;99621.90;;;4.06;85.81
77235;BME280;66253;50.526;14.974;2023-11-18T01:58:37;99624.05;;;4.09;85.80
77235;BME280;66253;50.526;14.974;2023-11-18T02:01:20;99623.52;;;4.10;86.11
77235;BME280;66253;50.526;14.974;2023-11-18T02:03:48;99628.85;;;4.13;85.98
77235;BME280;66253;50.526;14.974;2023-11-18T02:06:17;99636.46;;;4.13;85.78
77235;BME280;66253;50.526;14.974;2023-11-18T02:08:46;99639.11;;;4.15;86.17
77235;BME280;66253;50.526;14.974;2023-11-18T02:11:20;99641.27;;;4.17;86.12
77235;BME280;66253;50.526;14.974;2023-11-18T02:13:55;99644.14;;;4.17;86.37
77235;BME280;66253;50.526;14.974;2023-11-18T02:16:26;99644.80;;;4.18;86.20
77235;BME280;66253;50.526;14.974;2023-11-18T02:19:08;99648.13;;;4.20;86.09
77235;BME280;66253;50.526;14.974;2023-11-18T02:21:40;99648.27;;;4.21;86.55
77235;BME280;66253;50.526;14.974;2023-11-18T02:24:10;99653.33;;;4.22;86.60
77235;BME280;66253;50.526;14.974;2023-11-18T02:26:39;99650.78;;;4.22;86.58
77235;BME280;66253;50.526;14.974;2023-11-18T02:29:08;99654.49;;;4.23;86.59
77235;BME280;66253;50.526;14.974;2023-11-18T02:31:40;99659.60;;;4.21;86.33
77235;BME280;66253;50.526;14.974;2023-11-18T02:34:13;99663.50;;;4.21;86.63
77235;BME280;66253;50.526;14.974;2023-11-18T02:36:46;99661.14;;;4.20;86.27
77235;BME280;66253;50.526;14.974;2023-11-18T02:39:23;99659.47;;;4.19;86.08
77235;BME280;66253;50.526;14.974;2023-11-18T02:41:56;99664.23;;;4.18;86.16
77235;BME280;66253;50.526;14.974;2023-11-18T02:44:26;99660.39;;;4.16;86.17
77235;BME280;66253;50.526;14.974;2023-11-18T02:46:55;99666.02;;;4.14;85.93
77235;BME280;66253;50.526;14.974;2023-11-18T02:49:25;99666.25;;;4.12;86.39
77235;BME280;66253;50.526;14.974;2023-11-18T02:51:56;99665.31;;;4.09;86.13
77235;BME280;66253;50.526;14.974;2023-11-18T02:54:25;99668.39;;;4.06;85.76
77235;BME280;66253;50.526;14.974;2023-11-18T02:56:53;99663.55;;;4.04;85.97
77235;BME280;66253;50.526;14.974;2023-11-18T02:59:22;99665.04;;;4.05;86.00
77235;BME280;66253;50.526;14.974;2023-11-18T03:01:54;99668.09;;;4.05;86.33
77235;BME280;66253;50.526;14.974;2023-11-18T03:04:23;99666.42;;;4.03;86.17
77235;BME280;66253;50.526;14.974;2023-11-18T03:06:52;99664.58;;;4.03;86.42
77235;BME280;66253;50.526;14.974;2023-11-18T03:09:21;99664.08;;;4.03;86.21
77235;BME280;66253;50.526;14.974;2023-11-18T03:11:50;99663.25;;;4.02;86.34
77235;BME280;66253;50.526;14.974;2023-11-18T03:14:21;99665.31;;;4.00;86.42
77235;BME280;66253;50.526;14.974;2023-11-18T03:16:49;99665.68;;;3.98;86.66
77235;BME280;66253;50.526;14.974;2023-11-18T03:19:18;99665.20;;;3.97;86.16
77235;BME280;66253;50.526;14.974;2023-11-18T03:21:51;99661.49;;;3.96;86.45
77235;BME280;66253;50.526;14.974;2023-11-18T03:24:20;99657.64;;;3.95;86.18
77235;BME280;66253;50.526;14.974;2023-11-18T03:26:49;99661.70;;;3.95;86.23
77235;BME280;66253;50.526;14.974;2023-11-18T03:29:17;99661.54;;;3.95;86.54
77235;BME280;66253;50.526;14.974;2023-11-18T03:31:46;99668.66;;;3.94;86.19
77235;BME280;66253;50.526;14.974;2023-11-18T03:34:14;99671.08;;;3.91;86.50
77235;BME280;66253;50.526;14.974;2023-11-18T03:36:44;99676.50;;;3.90;86.69
77235;BME280;66253;50.526;14.974;2023-11-18T03:39:12;99679.08;;;3.89;86.37
77235;BME280;66253;50.526;14.974;2023-11-18T03:41:41;99679.09;;;3.88;86.51
77235;BME280;66253;50.526;14.974;2023-11-18T03:44:09;99674.02;;;3.88;87.02
77235;BME280;66253;50.526;14.974;2023-11-18T03:46:38;99677.88;;;3.89;86.74
77235;BME280;66253;50.526;14.974;2023-11-18T03:49:07;99675.02;;;3.89;86.92
77235;BME280;66253;50.526;14.974;2023-11-18T03:51:35;99679.73;;;3.90;86.84
77235;BME280;66253;50.526;14.974;2023-11-18T03:54:03;99678.72;;;3.89;86.67
77235;BME280;66253;50.526;14.974;2023-11-18T03:56:32;99675.69;;;3.89;86.72
77235;BME280;66253;50.526;14.974;2023-11-18T03:59:00;99670.98;;;3.88;87.17
77235;BME280;66253;50.526;14.974;2023-11-18T04:01:29;99669.28;;;3.89;86.70
77235;BME280;66253;50.526;14.974;2023-11-18T04:03:57;99669.15;;;3.87;86.96
77235;BME280;66253;50.526;14.974;2023-11-18T04:06:25;99671.05;;;3.85;86.69
77235;BME280;66253;50.526;14.974;2023-11-18T04:08:53;99674.28;;;3.84;86.76
77235;BME280;66253;50.526;14.974;2023-11-18T04:11:22;99674.29;;;3.83;86.68
77235;BME280;66253;50.526;14.974;2023-11-18T04:13:50;99681.61;;;3.81;86.67
77235;BME280;66253;50.526;14.974;2023-11-18T04:16:18;99682.85;;;3.78;86.77
77235;BME280;66253;50.526;14.974;2023-11-18T04:18:47;99686.45;;;3.75;86.72
77235;BME280;66253;50.526;14.974;2023-11-18T04:21:15;99689.69;;;3.74;86.50
77235;BME280;66253;50.526;14.974;2023-11-18T04:23:44;99698.03;;;3.71;86.63
77235;BME280;66253;50.526;14.974;2023-11-18T04:26:12;99699.41;;;3.70;86.58
77235;BME280;66253;50.526;14.974;2023-11-18T04:28:40;99699.60;;;3.69;86.66
77235;BME280;66253;50.526;14.974;2023-11-18T04:31:09;99695.71;;;3.68;86.67
77235;BME280;66253;50.526;14.974;2023-11-18T04:33:37;99699.79;;;3.68;86.48
77235;BME280;66253;50.526;14.974;2023-11-18T04:36:07;99696.08;;;3.67;86.89
77235;BME280;66253;50.526;14.974;2023-11-18T04:38:37;99697.80;;;3.65;86.62
77235;BME280;66253;50.526;14.974;2023-11-18T04:41:05;99698.52;;;3.64;86.90
77235;BME280;66253;50.526;14.974;2023-11-18T04:43:34;99699.27;;;3.61;86.71
77235;BME280;66253;50.526;14.974;2023-11-18T04:46:02;99701.83;;;3.59;86.78
77235;BME280;66253;50.526;14.974;2023-11-18T04:48:30;99709.47;;;3.57;87.01
77235;BME280;66253;50.526;14.974;2023-11-18T04:51:00;99709.31;;;3.56;86.84
77235;BME280;66253;50.526;14.974;2023-11-18T04:53:29;99713.19;;;3.56;86.58
77235;BME280;66253;50.526;14.974;2023-11-18T04:55:57;99716.39;;;3.57;86.90
77235;BME280;66253;50.526;14.974;2023-11-18T04:58:25;99717.05;;;3.58;87.08
77235;BME280;66253;50.526;14.974;2023-11-18T05:00:53;99719.04;;;3.60;87.11
77235;BME280;66253;50.526;14.974;2023-11-18T05:03:22;99721.86;;;3.62;87.08
77235;BME280;66253;50.526;14.974;2023-11-18T05:05:50;99726.39;;;3.63;87.01
77235;BME280;66253;50.526;14.974;2023-11-18T05:08:22;99727.04;;;3.65;87.20
77235;BME280;66253;50.526;14.974;2023-11-18T05:10:51;99730.55;;;3.67;87.31
77235;BME280;66253;50.526;14.974;2023-11-18T05:13:19;99732.88;;;3.69;87.27
77235;BME280;66253;50.526;14.974;2023-11-18T05:15:48;99734.05;;;3.69;87.25
77235;BME280;66253;50.526;14.974;2023-11-18T05:18:16;99732.50;;;3.71;87.31
77235;BME280;66253;50.526;14.974;2023-11-18T05:20:45;99739.55;;;3.73;87.21
77235;BME280;66253;50.526;14.974;2023-11-18T05:23:13;99742.06;;;3.74;87.03
77235;BME280;66253;50.526;14.974;2023-11-18T05:25:43;99747.13;;;3.74;87.28
77235;BME280;66253;50.526;14.974;2023-11-18T05:28:12;99747.66;;;3.73;86.92
77235;BME280;66253;50.526;14.974;2023-11-18T05:30:42;99747.70;;;3.71;87.35
77235;BME280;66253;50.526;14.974;2023-11-18T05:33:10;99744.83;;;3.71;87.46
77235;BME280;66253;50.526;14.974;2023-11-18T05:35:38;99747.53;;;3.71;87.34
77235;BME280;66253;50.526;14.974;2023-11-18T05:38:07;99750.10;;;3.69;87.65
77235;BME280;66253;50.526;14.974;2023-11-18T05:40:35;99749.10;;;3.69;87.64
77235;BME280;66253;50.526;14.974;2023-11-18T05:43:03;99749.28;;;3.68;87.74
77235;BME280;66253;50.526;14.974;2023-11-18T05:45:31;99749.63;;;3.68;87.78
77235;BME280;66253;50.526;14.974;2023-11-18T05:48:00;99746.59;;;3.67;87.77
77235;BME280;66253;50.526;14.974;2023-11-18T05:50:28;99744.95;;;3.65;87.92
77235;BME280;66253;50.526;14.974;2023-11-18T05:52:56;99747.31;;;3.65;87.92
77235;BME280;66253;50.526;14.974;2023-11-18T05:55:24;99753.25;;;3.64;88.23
77235;BME280;66253;50.526;14.974;2023-11-18T05:57:52;99755.30;;;3.63;88.48
77235;BME280;66253;50.526;14.974;2023-11-18T06:00:23;99759.68;;;3.63;88.52
77235;BME280;66253;50.526;14.974;2023-11-18T06:02:52;99756.83;;;3.62;88.23
77235;BME280;66253;50.526;14.974;2023-11-18T06:05:20;99760.70;;;3.63;88.43
77235;BME280;66253;50.526;14.974;2023-11-18T06:07:49;99766.25;;;3.64;88.50
77235;BME280;66253;50.526;14.974;2023-11-18T06:10:17;99769.80;;;3.63;88.37
77235;BME280;66253;50.526;14.974;2023-11-18T06:12:45;99773.35;;;3.63;88.52
77235;BME280;66253;50.526;14.974;2023-11-18T06:15:13;99772.16;;;3.63;88.51
77235;BME280;66253;50.526;14.974;2023-11-18T06:17:45;99774.02;;;3.63;88.30
77235;BME280;66253;50.526;14.974;2023-11-18T06:20:13;99772.04;;;3.62;88.59
77235;BME280;66253;50.526;14.974;2023-11-18T06:22:42;99770.35;;;3.61;88.68
77235;BME280;66253;50.526;14.974;2023-11-18T06:25:10;99768.85;;;3.60;88.56
77235;BME280;66253;50.526;14.974;2023-11-18T06:27:39;99767.52;;;3.60;88.66
77235;BME280;66253;50.526;14.974;2023-11-18T06:30:09;99767.16;;;3.60;88.80
77235;BME280;66253;50.526;14.974;2023-11-18T06:32:37;99767.52;;;3.60;88.65
77235;BME280;66253;50.526;14.974;2023-11-18T06:35:07;99774.73;;;3.61;88.64
77235;BME280;66253;50.526;14.974;2023-11-18T06:37:35;99773.02;;;3.63;88.86
77235;BME280;66253;50.526;14.974;2023-11-18T06:40:04;99776.52;;;3.66;88.69
77235;BME280;66253;50.526;14.974;2023-11-18T06:42:33;99777.71;;;3.65;88.38
77235;BME280;66253;50.526;14.974;2023-11-18T06:45:01;99782.41;;;3.67;88.54
77235;BME280;66253;50.526;14.974;2023-11-18T06:47:30;99781.70;;;3.68;88.49
77235;BME280;66253;50.526;14.974;2023-11-18T06:49:58;99783.35;;;3.70;88.81
77235;BME280;66253;50.526;14.974;2023-11-18T06:52:27;99790.95;;;3.71;88.62
77235;BME280;66253;50.526;14.974;2023-11-18T06:54:55;99794.79;;;3.74;88.70
77235;BME280;66253;50.526;14.974;2023-11-18T06:57:23;99801.01;;;3.75;88.66
77235;BME280;66253;50.526;14.974;2023-11-18T06:59:51;99806.70;;;3.78;88.82
77235;BME280;66253;50.526;14.974;2023-11-18T07:02:20;99811.23;;;3.80;88.47
77235;BME280;66253;50.526;14.974;2023-11-18T07:04:48;99815.60;;;3.81;88.92
77235;BME280;66253;50.526;14.974;2023-11-18T07:07:16;99814.77;;;3.81;88.84
77235;BME280;66253;50.526;14.974;2023-11-18T07:09:44;99813.73;;;3.81;89.12
77235;BME280;66253;50.526;14.974;2023-11-18T07:12:12;99812.03;;;3.82;88.89
77235;BME280;66253;50.526;14.974;2023-11-18T07:14:41;99815.39;;;3.83;88.96
77235;BME280;66253;50.526;14.974;2023-11-18T07:17:09;99822.95;;;3.85;89.09
77235;BME280;66253;50.526;14.974;2023-11-18T07:19:37;99821.58;;;3.87;88.72
77235;BME280;66253;50.526;14.974;2023-11-18T07:22:06;99823.39;;;3.89;88.91
77235;BME280;66253;50.526;14.974;2023-11-18T07:24:34;99829.27;;;3.91;88.89
77235;BME280;66253;50.526;14.974;2023-11-18T07:27:02;99832.25;;;3.94;89.10
77235;BME280;66253;50.526;14.974;2023-11-18T07:29:31;99834.77;;;3.94;89.06
77235;BME280;66253;50.526;14.974;2023-11-18T07:31:59;99838.98;;;3.96;88.96
77235;BME280;66253;50.526;14.974;2023-11-18T07:34:27;99841.98;;;3.98;88.87
77235;BME280;66253;50.526;14.974;2023-11-18T07:36:55;99841.45;;;3.98;88.88
77235;BME280;66253;50.526;14.974;2023-11-18T07:39:24;99843.79;;;4.00;88.85
77235;BME280;66253;50.526;14.974;2023-11-18T07:41:52;99845.27;;;4.02;88.95
77235;BME280;66253;50.526;14.974;2023-11-18T07:44:20;99844.73;;;4.04;89.20
77235;BME280;66253;50.526;14.974;2023-11-18T07:46:49;99846.76;;;4.05;88.90
77235;BME280;66253;50.526;14.974;2023-11-18T07:49:17;99845.89;;;4.06;89.09
77235;BME280;66253;50.526;14.974;2023-11-18T07:51:45;99847.42;;;4.05;88.88
77235;BME280;66253;50.526;14.974;2023-11-18T07:54:13;99847.92;;;4.05;88.95
77235;BME280;66253;50.526;14.974;2023-11-18T07:56:43;99848.27;;;4.05;88.83
77235;BME280;66253;50.526;14.974;2023-11-18T07:59:11;99852.30;;;4.07;88.81
77235;BME280;66253;50.526;14.974;2023-11-18T08:01:41;99855.45;;;4.09;88.71
77235;BME280;66253;50.526;14.974;2023-11-18T08:04:10;99853.91;;;4.10;88.72
77235;BME280;66253;50.526;14.974;2023-11-18T08:06:38;99857.29;;;4.11;88.78
77235;BME280;66253;50.526;14.974;2023-11-18T08:09:07;99862.88;;;4.10;88.93
77235;BME280;66253;50.526;14.974;2023-11-18T08:11:35;99864.40;;;4.10;88.56
77235;BME280;66253;50.526;14.974;2023-11-18T08:14:03;99864.70;;;4.12;88.80
77235;BME280;66253;50.526;14.974;2023-11-18T08:16:32;99866.00;;;4.14;88.62
77235;BME280;66253;50.526;14.974;2023-11-18T08:19:00;99862.73;;;4.18;88.78
77235;BME280;66253;50.526;14.974;2023-11-18T08:21:28;99862.33;;;4.21;88.81
77235;BME280;66253;50.526;14.974;2023-11-18T08:23:57;99860.73;;;4.24;88.80
77235;BME280;66253;50.526;14.974;2023-11-18T08:26:25;99860.17;;;4.26;88.56
77235;BME280;66253;50.526;14.974;2023-11-18T08:28:53;99862.87;;;4.28;88.56
77235;BME280;66253;50.526;14.974;2023-11-18T08:31:22;99863.84;;;4.30;88.69
77235;BME280;66253;50.526;14.974;2023-11-18T08:33:50;99867.13;;;4.34;88.95
77235;BME280;66253;50.526;14.974;2023-11-18T08:36:18;99871.45;;;4.38;88.73
77235;BME280;66253;50.526;14.974;2023-11-18T08:38:46;99881.70;;;4.42;88.87
77235;BME280;66253;50.526;14.974;2023-11-18T08:41:15;99885.19;;;4.45;88.79
77235;BME280;66253;50.526;14.974;2023-11-18T08:43:43;99887.16;;;4.48;88.47
77235;BME280;66253;50.526;14.974;2023-11-18T08:46:11;99894.19;;;4.51;88.60
77235;BME280;66253;50.526;14.974;2023-11-18T08:48:40;99893.27;;;4.55;88.68
77235;BME280;66253;50.526;14.974;2023-11-18T08:51:09;99897.40;;;4.60;88.45
77235;BME280;66253;50.526;14.974;2023-11-18T08:53:37;99902.20;;;4.65;88.85
77235;BME280;66253;50.526;14.974;2023-11-18T08:56:06;99906.88;;;4.68;88.54
77235;BME280;66253;50.526;14.974;2023-11-18T08:58:34;99913.59;;;4.70;88.33
77235;BME280;66253;50.526;14.974;2023-11-18T09:01:03;99919.77;;;4.75;88.35
77235;BME280;66253;50.526;14.974;2023-11-18T09:03:32;99917.55;;;4.76;88.29
77235;BME280;66253;50.526;14.974;2023-11-18T09:06:01;99917.97;;;4.80;88.17
77235;BME280;66253;50.526;14.974;2023-11-18T09:08:29;99918.38;;;4.84;88.24
77235;BME280;66253;50.526;14.974;2023-11-18T09:10:58;99913.55;;;4.88;88.00
77235;BME280;66253;50.526;14.974;2023-11-18T09:13:27;99917.20;;;4.92;88.01
77235;BME280;66253;50.526;14.974;2023-11-18T09:15:56;99920.02;;;4.95;87.98
77235;BME280;66253;50.526;14.974;2023-11-18T09:18:25;99927.90;;;4.98;87.74
77235;BME280;66253;50.526;14.974;2023-11-18T09:20:53;99932.40;;;5.02;87.79
77235;BME280;66253;50.526;14.974;2023-11-18T09:26:45;99934.27;;;5.09;87.55
77235;BME280;66253;50.526;14.974;2023-11-18T09:29:14;99934.42;;;5.09;87.39
77235;BME280;66253;50.526;14.974;2023-11-18T09:31:42;99931.80;;;5.13;87.36
77235;BME280;66253;50.526;14.974;2023-11-18T09:34:11;99934.42;;;5.17;87.22
77235;BME280;66253;50.526;14.974;2023-11-18T09:36:39;99931.97;;;5.21;87.60
77235;BME280;66253;50.526;14.974;2023-11-18T09:39:07;99934.39;;;5.26;87.39
77235;BME280;66253;50.526;14.974;2023-11-18T09:41:36;99931.94;;;5.30;87.16
77235;BME280;66253;50.526;14.974;2023-11-18T09:44:07;99935.78;;;5.32;86.63
77235;BME280;66253;50.526;14.974;2023-11-18T09:46:37;99936.92;;;5.34;86.47
77235;BME280;66253;50.526;14.974;2023-11-18T09:49:16;99940.27;;;5.37;86.64
77235;BME280;66253;50.526;14.974;2023-11-18T09:51:46;99945.08;;;5.40;86.43
77235;BME280;66253;50.526;14.974;2023-11-18T09:54:30;99941.98;;;5.42;86.55
77235;BME280;66253;50.526;14.974;2023-11-18T09:57:02;99941.94;;;5.44;85.89
77235;BME280;66253;50.526;14.974;2023-11-18T09:59:33;99940.36;;;5.47;85.94
77235;BME280;66253;50.526;14.974;2023-11-18T10:02:06;99936.91;;;5.50;85.86
77235;BME280;66253;50.526;14.974;2023-11-18T10:04:35;99943.48;;;5.51;85.75
77235;BME280;66253;50.526;14.974;2023-11-18T10:07:05;99942.95;;;5.52;85.06
77235;BME280;66253;50.526;14.974;2023-11-18T10:09:33;99938.67;;;5.54;85.35
77235;BME280;66253;50.526;14.974;2023-11-18T10:12:02;99939.80;;;5.56;85.09
77235;BME280;66253;50.526;14.974;2023-11-18T10:14:30;99944.35;;;5.57;85.03
77235;BME280;66253;50.526;14.974;2023-11-18T10:16:59;99946.50;;;5.59;84.96
77235;BME280;66253;50.526;14.974;2023-11-18T10:19:50;99941.02;;;5.61;85.13
77235;BME280;66253;50.526;14.974;2023-11-18T10:22:23;99940.38;;;5.67;85.09
77235;BME280;66253;50.526;14.974;2023-11-18T10:24:51;99937.73;;;5.71;84.19
77235;BME280;66253;50.526;14.974;2023-11-18T10:27:20;99935.29;;;5.74;84.27
77235;BME280;66253;50.526;14.974;2023-11-18T10:29:49;99934.70;;;5.77;84.50
77235;BME280;66253;50.526;14.974;2023-11-18T10:32:17;99929.53;;;5.81;84.49
77235;BME280;66253;50.526;14.974;2023-11-18T10:34:46;99932.89;;;5.82;84.09
77235;BME280;66253;50.526;14.974;2023-11-18T10:37:15;99932.52;;;5.84;83.51
77235;BME280;66253;50.526;14.974;2023-11-18T10:39:47;99930.45;;;5.84;83.59
77235;BME280;66253;50.526;14.974;2023-11-18T10:42:16;99932.96;;;5.85;82.98
77235;BME280;66253;50.526;14.974;2023-11-18T10:44:55;99934.20;;;5.84;83.19
77235;BME280;66253;50.526;14.974;2023-11-18T10:47:26;99933.88;;;5.83;83.45
77235;BME280;66253;50.526;14.974;2023-11-18T10:49:55;99934.54;;;5.84;83.34
77235;BME280;66253;50.526;14.974;2023-11-18T10:52:24;99929.96;;;5.84;83.03
77235;BME280;66253;50.526;14.974;2023-11-18T10:54:53;99931.77;;;5.86;83.20
77235;BME280;66253;50.526;14.974;2023-11-18T10:57:22;99932.95;;;5.86;82.86
77235;BME280;66253;50.526;14.974;2023-11-18T11:00:04;99933.33;;;5.85;82.14
77235;BME280;66253;50.526;14.974;2023-11-18T11:02:33;99939.06;;;5.85;82.82
77235;BME280;66253;50.526;14.974;2023-11-18T11:05:02;99937.17;;;5.87;82.92
77235;BME280;66253;50.526;14.974;2023-11-18T11:07:33;99934.30;;;5.87;83.19
77235;BME280;66253;50.526;14.974;2023-11-18T11:10:02;99935.27;;;5.88;83.13
77235;BME280;66253;50.526;14.974;2023-11-18T11:12:35;99930.56;;;5.87;82.80
77235;BME280;66253;50.526;14.974;2023-11-18T11:15:13;99929.21;;;5.86;82.62
77235;BME280;66253;50.526;14.974;2023-11-18T11:17:51;99930.88;;;5.88;82.53
77235;BME280;66253;50.526;14.974;2023-11-18T11:20:22;99936.96;;;5.88;82.49
77235;BME280;66253;50.526;14.974;2023-11-18T11:23:03;99938.20;;;5.86;81.60
77235;BME280;66253;50.526;14.974;2023-11-18T11:25:38;99944.06;;;5.82;81.60
77235;BME280;66253;50.526;14.974;2023-11-18T11:28:15;99942.98;;;5.79;81.18
77235;BME280;66253;50.526;14.974;2023-11-18T11:30:49;99945.75;;;5.76;81.86
77235;BME280;66253;50.526;14.974;2023-11-18T11:33:25;99951.66;;;5.77;82.06
77235;BME280;66253;50.526;14.974;2023-11-18T11:35:58;99958.95;;;5.77;82.30
77235;BME280;66253;50.526;14.974;2023-11-18T11:38:28;99964.34;;;5.79;82.33
77235;BME280;66253;50.526;14.974;2023-11-18T11:40:56;99967.02;;;5.79;82.05
77235;BME280;66253;50.526;14.974;2023-11-18T11:43:26;99965.35;;;5.78;82.50
77235;BME280;66253;50.526;14.974;2023-11-18T11:45:56;99979.21;;;5.80;82.23
77235;BME280;66253;50.526;14.974;2023-11-18T11:48:24;99976.16;;;5.81;82.46
77235;BME280;66253;50.526;14.974;2023-11-18T11:53:37;99975.80;;;5.81;82.16
77235;BME280;66253;50.526;14.974;2023-11-18T11:56:08;99979.06;;;5.79;81.86
77235;BME280;66253;50.526;14.974;2023-11-18T11:58:37;99986.90;;;5.78;82.28
77235;BME280;66253;50.526;14.974;2023-11-18T12:01:21;99986.55;;;5.78;82.30
77235;BME280;66253;50.526;14.974;2023-11-18T12:03:50;99987.38;;;5.79;81.97
77235;BME280;66253;50.526;14.974;2023-11-18T12:06:23;99988.92;;;5.78;82.39
77235;BME280;66253;50.526;14.974;2023-11-18T12:08:52;99996.74;;;5.78;82.16
77235;BME280;66253;50.526;14.974;2023-11-18T12:11:22;99998.77;;;5.78;82.35
77235;BME280;66253;50.526;14.974;2023-11-18T12:14:04;100001.84;;;5.77;81.99
77235;BME280;66253;50.526;14.974;2023-11-18T12:19:43;99992.17;;;5.70;81.57
77235;BME280;66253;50.526;14.974;2023-11-18T12:22:12;99991.51;;;5.62;81.32
77235;BME280;66253;50.526;14.974;2023-11-18T12:24:41;99988.77;;;5.56;81.30
77235;BME280;66253;50.526;14.974;2023-11-18T12:27:10;99985.86;;;5.50;81.21
77235;BME280;66253;50.526;14.974;2023-11-18T12:29:42;99984.97;;;5.45;81.90
77235;BME280;66253;50.526;14.974;2023-11-18T12:32:11;99984.33;;;5.42;82.23
77235;BME280;66253;50.526;14.974;2023-11-18T12:34:55;99976.27;;;5.40;82.36
77235;BME280;66253;50.526;14.974;2023-11-18T12:37:40;99965.63;;;5.38;82.48
77235;BME280;66253;50.526;14.974;2023-11-18T12:40:47;99960.92;;;5.36;82.43
77235;BME280;66253;50.526;14.974;2023-11-18T12:43:31;99955.64;;;5.38;82.66
77235;BME280;66253;50.526;14.974;2023-11-18T12:49:14;99946.77;;;5.48;83.25
77235;BME280;66253;50.526;14.974;2023-11-18T12:51:43;99949.11;;;5.49;83.12
77235;BME280;66253;50.526;14.974;2023-11-18T12:54:12;99952.24;;;5.53;83.03
77235;BME280;66253;50.526;14.974;2023-11-18T12:56:41;99953.53;;;5.55;82.32
77235;BME280;66253;50.526;14.974;2023-11-18T12:59:10;99951.49;;;5.56;82.87
77235;BME280;66253;50.526;14.974;2023-11-18T13:01:38;99950.66;;;5.55;82.70
77235;BME280;66253;50.526;14.974;2023-11-18T13:04:07;99941.42;;;5.51;82.32
77235;BME280;66253;50.526;14.974;2023-11-18T13:06:35;99939.48;;;5.49;81.81
77235;BME280;66253;50.526;14.974;2023-11-18T13:09:04;99940.02;;;5.47;82.14
77235;BME280;66253;50.526;14.974;2023-11-18T13:11:32;99941.21;;;5.46;81.90
77235;BME280;66253;50.526;14.974;2023-11-18T13:14:01;99937.31;;;5.46;82.17
77235;BME280;66253;50.526;14.974;2023-11-18T13:16:30;99932.72;;;5.48;82.37
77235;BME280;66253;50.526;14.974;2023-11-18T13:18:58;99931.03;;;5.46;82.10
77235;BME280;66253;50.526;14.974;2023-11-18T13:21:26;99927.88;;;5.45;82.06
77235;BME280;66253;50.526;14.974;2023-11-18T13:23:54;99928.10;;;5.41;81.54
77235;BME280;66253;50.526;14.974;2023-11-18T13:26:23;99925.83;;;5.38;81.25